createdAt,value
2022-11-05T00:02:42.941Z,10.88
2022-11-05T00:06:07.211Z,10.98
2022-11-05T00:09:29.762Z,10.95
2022-11-05T00:12:51.133Z,10.17
2022-11-05T00:16:12.479Z,9.95
2022-11-05T00:19:16.906Z,10.15
2022-11-05T00:22:56.213Z,10.25
2022-11-05T00:26:08.519Z,10.82
2022-11-05T00:29:11.213Z,10.10
2022-11-05T00:32:14.494Z,9.85
2022-11-05T00:35:19.948Z,9.80
2022-11-05T00:38:22.752Z,10.02
2022-11-05T00:41:25.315Z,9.98
2022-11-05T00:44:46.565Z,9.93
2022-11-05T00:48:08.052Z,9.80
2022-11-05T00:51:10.747Z,10.98
2022-11-05T00:54:13.348Z,9.50
2022-11-05T00:57:15.959Z,10.20
2022-11-05T01:00:19.056Z,9.97
2022-11-05T01:03:24.047Z,9.70
2022-11-05T01:06:26.780Z,10.70
2022-11-05T01:09:29.399Z,9.27
2022-11-05T01:12:32.351Z,10.23
2022-11-05T01:15:36.568Z,9.80
2022-11-05T01:18:39.330Z,9.40
2022-11-05T01:21:42.259Z,9.65
2022-11-05T01:24:44.823Z,9.65
2022-11-05T01:27:47.505Z,9.23
2022-11-05T01:30:56.059Z,9.40
2022-11-05T01:34:00.953Z,9.73
2022-11-05T01:37:03.779Z,9.88
2022-11-05T01:40:08.525Z,9.90
2022-11-05T01:43:18.473Z,10.32
2022-11-05T01:46:28.140Z,9.50
2022-11-05T01:49:34.272Z,9.48
2022-11-05T01:52:36.944Z,9.50
2022-11-05T01:55:44.340Z,9.85
2022-11-05T01:58:56.466Z,9.60
2022-11-05T02:02:00.892Z,8.83
2022-11-05T02:05:06.468Z,10.00
2022-11-05T02:08:19.554Z,9.43
2022-11-05T02:11:22.283Z,9.15
2022-11-05T02:14:25.053Z,9.52
2022-11-05T02:18:07.683Z,9.33
2022-11-05T02:21:51.945Z,9.00
2022-11-05T02:25:09.726Z,9.50
2022-11-05T02:28:29.596Z,8.93
2022-11-05T02:31:40.961Z,8.75
2022-11-05T02:35:00.327Z,8.63
2022-11-05T02:38:11.849Z,8.88
2022-11-05T02:41:30.425Z,9.45
2022-11-05T02:44:40.905Z,8.63
2022-11-05T02:47:57.287Z,8.65
2022-11-05T02:51:22.528Z,7.93
2022-11-05T02:54:34.449Z,9.00
2022-11-05T02:57:37.367Z,8.18
2022-11-05T03:00:39.965Z,9.18
2022-11-05T03:03:51.518Z,8.50
2022-11-05T03:07:22.381Z,8.23
2022-11-05T03:10:53.490Z,8.35
2022-11-05T03:14:18.589Z,8.23
2022-11-05T03:17:37.978Z,8.95
2022-11-05T03:21:02.929Z,8.45
2022-11-05T03:24:23.600Z,8.47
2022-11-05T03:27:31.456Z,8.13
2022-11-05T03:30:37.872Z,8.27
2022-11-05T03:33:43.354Z,7.95
2022-11-05T03:36:51.676Z,8.65
2022-11-05T03:39:58.916Z,8.00
2022-11-05T03:43:06.641Z,8.52
2022-11-05T03:46:22.181Z,8.10
2022-11-05T03:49:31.139Z,8.15
2022-11-05T03:52:39.258Z,8.18
2022-11-05T03:55:59.334Z,7.63
2022-11-05T03:59:05.070Z,8.05
2022-11-05T04:02:08.078Z,7.65
2022-11-05T04:05:12.051Z,7.93
2022-11-05T04:08:32.775Z,8.40
2022-11-05T04:11:54.985Z,7.87
2022-11-05T04:14:57.722Z,8.40
2022-11-05T04:18:00.327Z,7.97
2022-11-05T04:21:22.733Z,7.72
2022-11-05T04:24:25.334Z,7.72
2022-11-05T04:27:27.924Z,7.77
2022-11-05T04:30:35.066Z,7.93
2022-11-05T04:33:37.744Z,7.63
2022-11-05T04:36:40.298Z,8.10
2022-11-05T04:39:43.081Z,7.88
2022-11-05T04:42:45.678Z,7.43
2022-11-05T04:45:48.344Z,7.43
2022-11-05T04:48:51.176Z,7.80
2022-11-05T04:51:53.865Z,7.88
2022-11-05T04:54:56.753Z,7.95
2022-11-05T04:58:03.777Z,7.40
2022-11-05T05:01:06.809Z,7.43
2022-11-05T05:04:09.577Z,8.18
2022-11-05T05:07:12.189Z,8.02
2022-11-05T05:10:14.826Z,6.53
2022-11-05T05:13:17.366Z,7.30
2022-11-05T05:16:27.902Z,7.15
2022-11-05T05:19:31.464Z,6.82
2022-11-05T05:22:34.218Z,7.18
2022-11-05T05:25:36.862Z,7.15
2022-11-05T05:28:39.743Z,7.43
2022-11-05T05:31:42.920Z,7.07
2022-11-05T05:34:45.605Z,6.90
2022-11-05T05:37:48.158Z,6.97
2022-11-05T05:40:51.845Z,6.85
2022-11-05T05:43:54.718Z,6.20
2022-11-05T05:47:00.634Z,6.95
2022-11-05T05:50:03.569Z,7.50
2022-11-05T05:53:06.260Z,6.72
2022-11-05T05:56:08.852Z,6.65
2022-11-05T05:59:12.261Z,6.57
2022-11-05T06:02:14.987Z,6.80
2022-11-05T06:05:41.169Z,6.60
2022-11-05T06:08:44.876Z,7.03
2022-11-05T06:11:50.877Z,6.78
2022-11-05T06:14:53.611Z,6.87
2022-11-05T06:17:56.479Z,6.35
2022-11-05T06:21:04.599Z,6.82
2022-11-05T06:24:08.560Z,7.50
2022-11-05T06:27:11.241Z,6.53
2022-11-05T06:30:14.398Z,6.23
2022-11-05T06:33:31.926Z,6.53
2022-11-05T06:36:34.930Z,6.25
2022-11-05T06:39:37.564Z,6.22
2022-11-05T06:42:40.410Z,7.15
2022-11-05T06:45:42.991Z,6.63
2022-11-05T06:48:48.318Z,5.50
2022-11-05T06:51:51.912Z,6.80
2022-11-05T06:54:54.592Z,6.13
2022-11-05T06:57:58.045Z,6.28
2022-11-05T07:01:04.526Z,6.30
2022-11-05T07:04:07.389Z,6.00
2022-11-05T07:07:10.323Z,6.03
2022-11-05T07:10:15.815Z,5.75
2022-11-05T07:13:18.504Z,6.57
2022-11-05T07:16:21.304Z,6.33
2022-11-05T07:19:24.231Z,6.10
2022-11-05T07:22:27.167Z,6.55
2022-11-05T07:25:31.503Z,5.78
2022-11-05T07:28:34.270Z,6.18
2022-11-05T07:31:36.971Z,6.33
2022-11-05T07:34:39.658Z,5.20
2022-11-05T07:37:44.307Z,6.15
2022-11-05T07:40:46.856Z,5.80
2022-11-05T07:43:49.473Z,5.85
2022-11-05T07:46:52.294Z,5.67
2022-11-05T07:49:57.158Z,5.70
2022-11-05T07:53:01.967Z,5.45
2022-11-05T07:56:08.669Z,6.40
2022-11-05T07:59:11.554Z,6.55
2022-11-05T08:02:14.448Z,5.80
2022-11-05T08:05:17.253Z,5.78
2022-11-05T08:08:20.263Z,6.40
2022-11-05T08:11:23.330Z,5.68
2022-11-05T08:14:25.972Z,6.35
2022-11-05T08:17:28.567Z,5.97
2022-11-05T08:20:33.474Z,5.78
2022-11-05T08:23:39.631Z,5.53
2022-11-05T08:26:42.279Z,5.35
2022-11-05T08:29:44.936Z,5.20
2022-11-05T08:32:50.568Z,5.30
2022-11-05T08:35:53.266Z,5.68
2022-11-05T08:38:55.989Z,6.20
2022-11-05T08:41:58.629Z,5.80
2022-11-05T08:45:01.257Z,5.82
2022-11-05T08:48:07.576Z,6.17
2022-11-05T08:51:14.497Z,6.05
2022-11-05T08:54:21.148Z,5.50
2022-11-05T08:57:24.314Z,6.00
2022-11-05T09:00:36.952Z,5.43
2022-11-05T09:03:40.572Z,5.20
2022-11-05T09:06:47.781Z,5.53
2022-11-05T09:09:55.380Z,5.03
2022-11-05T09:13:01.661Z,5.07
2022-11-05T09:16:04.773Z,5.53
2022-11-05T09:19:07.533Z,5.07
2022-11-05T09:22:14.066Z,5.18
2022-11-05T09:25:16.996Z,5.63
2022-11-05T09:28:21.604Z,5.07
2022-11-05T09:31:24.205Z,5.35
2022-11-05T09:34:26.855Z,5.70
2022-11-05T09:37:29.834Z,5.32
2022-11-05T09:40:41.522Z,4.97
2022-11-05T09:43:48.597Z,5.13
2022-11-05T09:47:02.864Z,4.95
2022-11-05T09:50:15.832Z,5.77
2022-11-05T09:53:20.753Z,5.13
2022-11-05T09:56:42.439Z,4.85
2022-11-05T09:59:49.044Z,4.80
2022-11-05T10:02:55.853Z,5.15
2022-11-05T10:06:08.234Z,4.80
2022-11-05T10:09:37.271Z,4.85
2022-11-05T10:12:54.350Z,5.15
2022-11-05T10:16:17.124Z,4.50
2022-11-05T10:19:24.994Z,4.47
2022-11-05T10:22:27.666Z,4.57
2022-11-05T10:25:36.941Z,4.75
2022-11-05T10:28:39.840Z,4.53
2022-11-05T10:31:43.548Z,4.32
2022-11-05T10:34:46.286Z,4.55
2022-11-05T10:37:53.705Z,4.90
2022-11-05T10:41:20.737Z,4.82
2022-11-05T10:44:26.292Z,4.55
2022-11-05T10:47:31.703Z,4.18
2022-11-05T10:50:36.183Z,4.78
2022-11-05T10:53:40.647Z,4.60
2022-11-05T10:56:43.337Z,4.47
2022-11-05T10:59:45.896Z,4.80
2022-11-05T11:02:53.454Z,4.60
2022-11-05T11:06:13.497Z,5.20
2022-11-05T11:09:32.161Z,4.40
2022-11-05T11:12:41.036Z,4.43
2022-11-05T11:15:44.013Z,4.40
2022-11-05T11:18:46.780Z,4.85
2022-11-05T11:22:11.037Z,4.47
2022-11-05T11:25:48.500Z,4.57
2022-11-05T11:28:59.525Z,4.90
2022-11-05T11:32:02.693Z,4.65
2022-11-05T11:35:08.597Z,4.20
2022-11-05T11:38:15.979Z,4.40
2022-11-05T11:41:26.591Z,4.30
2022-11-05T11:44:35.775Z,4.93
2022-11-05T11:47:43.947Z,4.82
2022-11-05T11:50:48.165Z,4.43
2022-11-05T11:53:55.881Z,4.38
2022-11-05T11:56:58.660Z,3.87
2022-11-05T12:00:09.766Z,3.70
2022-11-05T12:03:46.089Z,4.60
2022-11-05T12:07:08.849Z,4.13
2022-11-05T12:10:35.440Z,4.30
2022-11-05T12:13:50.124Z,4.40
2022-11-05T12:17:07.668Z,4.60
2022-11-05T12:20:33.388Z,4.38
2022-11-05T12:23:36.094Z,3.83
2022-11-05T12:26:57.696Z,4.47
2022-11-05T12:30:14.189Z,3.97
2022-11-05T12:33:26.360Z,3.88
2022-11-05T12:37:28.820Z,4.38
2022-11-05T12:40:40.746Z,3.35
2022-11-05T12:44:01.801Z,3.90
2022-11-05T12:47:04.625Z,4.10
2022-11-05T12:50:20.820Z,4.25
2022-11-05T12:53:43.220Z,4.00
2022-11-05T12:56:50.293Z,4.43
2022-11-05T13:00:07.983Z,4.38
2022-11-05T13:03:22.322Z,3.73
2022-11-05T13:06:40.017Z,4.03
2022-11-05T13:10:06.256Z,3.45
2022-11-05T13:13:34.602Z,4.22
2022-11-05T13:16:41.966Z,4.18
2022-11-05T13:19:52.454Z,3.47
2022-11-05T13:23:07.462Z,3.80
2022-11-05T13:26:32.108Z,4.05
2022-11-05T13:29:49.683Z,4.05
2022-11-05T13:33:00.165Z,3.70
2022-11-05T13:36:27.374Z,3.80
2022-11-05T13:39:41.010Z,3.60
2022-11-05T13:43:02.637Z,3.60
2022-11-05T13:46:14.832Z,3.88
2022-11-05T13:49:49.139Z,3.67
2022-11-05T13:53:01.711Z,3.60
2022-11-05T13:56:23.544Z,3.50
2022-11-05T13:59:38.485Z,3.78
2022-11-05T14:02:58.963Z,3.67
2022-11-05T14:06:07.820Z,3.70
2022-11-05T14:09:16.773Z,3.67
2022-11-05T14:12:40.921Z,3.40
2022-11-05T14:16:09.157Z,3.28
2022-11-05T14:19:18.386Z,3.40
2022-11-05T14:22:33.650Z,3.50
2022-11-05T14:25:36.628Z,3.73
2022-11-05T14:28:43.931Z,3.90
2022-11-05T14:32:12.055Z,3.33
2022-11-05T14:35:27.733Z,3.63
2022-11-05T14:38:39.473Z,3.40
2022-11-05T14:41:59.781Z,3.57
2022-11-05T14:45:37.429Z,3.60
2022-11-05T14:49:05.133Z,3.58
2022-11-05T14:52:17.046Z,3.83
2022-11-05T14:55:27.892Z,3.78
2022-11-05T14:58:35.634Z,3.93
2022-11-05T15:01:44.480Z,3.30
2022-11-05T15:04:48.512Z,3.58
2022-11-05T15:07:57.346Z,3.35
2022-11-05T15:11:15.424Z,3.90
2022-11-05T15:14:18.937Z,3.07
2022-11-05T15:17:23.675Z,3.72
2022-11-05T15:20:48.283Z,3.45
2022-11-05T15:23:56.875Z,3.70
2022-11-05T15:27:03.178Z,3.58
2022-11-05T15:30:25.225Z,3.50
2022-11-05T15:33:29.602Z,3.65
2022-11-05T15:36:32.972Z,3.70
2022-11-05T15:39:41.888Z,2.90
2022-11-05T15:42:45.405Z,3.85
2022-11-05T15:46:05.852Z,3.43
2022-11-05T15:49:19.471Z,2.80
2022-11-05T15:52:42.458Z,3.28
2022-11-05T15:55:54.315Z,3.28
2022-11-05T15:59:03.616Z,3.40
2022-11-05T16:02:14.901Z,3.40
2022-11-05T16:05:18.880Z,3.40
2022-11-05T16:08:25.152Z,3.42
2022-11-05T16:11:48.479Z,3.60
2022-11-05T16:15:08.296Z,3.65
2022-11-05T16:18:23.597Z,3.27
2022-11-05T16:21:28.859Z,3.13
2022-11-05T16:24:32.368Z,3.30
2022-11-05T16:27:38.096Z,3.30
2022-11-05T16:31:02.478Z,3.38
2022-11-05T16:34:05.825Z,2.87
2022-11-05T16:37:13.994Z,2.92
2022-11-05T16:40:25.623Z,3.30
2022-11-05T16:43:29.801Z,3.00
2022-11-05T16:46:34.242Z,3.50
2022-11-05T16:49:38.793Z,3.20
2022-11-05T16:52:42.105Z,3.10
2022-11-05T16:55:51.905Z,3.42
2022-11-05T16:58:58.190Z,2.72
2022-11-05T17:02:02.206Z,2.90
2022-11-05T17:05:16.107Z,3.07
2022-11-05T17:08:21.920Z,3.42
2022-11-05T17:11:25.757Z,2.80
2022-11-05T17:14:30.759Z,2.97
2022-11-05T17:17:34.713Z,3.30
2022-11-05T17:21:03.249Z,2.97
2022-11-05T17:24:07.415Z,3.53
2022-11-05T17:27:12.331Z,3.30
2022-11-05T17:30:20.351Z,2.95
2022-11-05T17:33:24.320Z,3.00
2022-11-05T17:36:31.141Z,3.10
2022-11-05T17:39:34.957Z,2.88
2022-11-05T17:42:38.884Z,3.08
2022-11-05T17:45:48.427Z,3.00
2022-11-05T17:48:54.697Z,2.70
2022-11-05T17:51:58.640Z,3.23
2022-11-05T17:55:04.301Z,3.40
2022-11-05T17:58:08.820Z,3.30
2022-11-05T18:01:43.909Z,3.00
2022-11-05T18:04:47.615Z,3.05
2022-11-05T18:07:52.121Z,3.03
2022-11-05T18:11:19.742Z,3.00
2022-11-05T18:14:28.411Z,2.97
2022-11-05T18:17:34.568Z,2.90
2022-11-05T18:20:39.428Z,3.20
2022-11-05T18:23:44.763Z,2.70
2022-11-05T18:26:54.778Z,3.10
2022-11-05T18:30:03.826Z,3.22
2022-11-05T18:33:08.183Z,3.00
2022-11-05T18:36:26.357Z,2.60
2022-11-05T18:39:38.419Z,2.77
2022-11-05T18:42:46.269Z,3.03
2022-11-05T18:46:00.657Z,3.45
2022-11-05T18:49:05.124Z,2.78
2022-11-05T18:52:09.788Z,2.95
2022-11-05T18:55:13.828Z,2.97
2022-11-05T18:58:17.605Z,3.22
2022-11-05T19:01:24.569Z,3.03
2022-11-05T19:04:29.450Z,2.80
2022-11-05T19:07:38.323Z,3.22
2022-11-05T19:10:42.824Z,2.60
2022-11-05T19:13:48.404Z,2.92
2022-11-05T19:16:52.353Z,2.88
2022-11-05T19:20:13.254Z,2.90
2022-11-05T19:23:26.358Z,3.05
2022-11-05T19:26:31.665Z,3.37
2022-11-05T19:29:40.705Z,2.78
2022-11-05T19:32:45.390Z,3.42
2022-11-05T19:35:49.045Z,2.85
2022-11-05T19:38:58.008Z,2.65
2022-11-05T19:42:11.454Z,2.73
2022-11-05T19:45:44.262Z,2.83
2022-11-05T19:48:40.380Z,2.75
2022-11-05T19:51:44.150Z,2.78
2022-11-05T19:54:48.440Z,2.80
2022-11-05T19:57:52.424Z,3.13
2022-11-05T20:00:56.681Z,2.83
2022-11-05T20:04:02.982Z,3.42
2022-11-05T20:07:08.025Z,2.70
2022-11-05T20:10:11.887Z,2.65
2022-11-05T20:13:20.007Z,2.80
2022-11-05T20:16:29.950Z,2.60
2022-11-05T20:19:35.711Z,2.70
2022-11-05T20:22:39.738Z,3.08
2022-11-05T20:25:43.660Z,2.70
2022-11-05T20:28:52.949Z,3.37
2022-11-05T20:31:58.629Z,2.78
2022-11-05T20:35:07.326Z,2.30
2022-11-05T20:38:12.936Z,2.75
2022-11-05T20:41:23.824Z,2.13
2022-11-05T20:44:28.325Z,2.43
2022-11-05T20:47:32.966Z,3.20
2022-11-05T20:50:46.970Z,3.03
2022-11-05T20:54:02.880Z,3.08
2022-11-05T20:57:06.701Z,2.75
2022-11-05T21:00:10.654Z,2.53
2022-11-05T21:03:14.267Z,2.60
2022-11-05T21:06:18.188Z,3.08
2022-11-05T21:09:25.702Z,2.78
2022-11-05T21:12:32.514Z,2.70
2022-11-05T21:15:39.661Z,2.87
2022-11-05T21:18:43.190Z,2.45
2022-11-05T21:21:48.493Z,2.80
2022-11-05T21:24:52.089Z,3.10
2022-11-05T21:27:55.579Z,2.73
2022-11-05T21:31:10.203Z,2.47
2022-11-05T21:34:26.989Z,2.40
2022-11-05T21:37:33.258Z,2.75
2022-11-05T21:40:38.098Z,2.65
2022-11-05T21:43:42.617Z,2.60
2022-11-05T21:46:46.339Z,2.80
2022-11-05T21:49:55.713Z,2.85
2022-11-05T21:53:19.531Z,2.25
2022-11-05T21:56:45.473Z,2.72
2022-11-05T21:59:48.486Z,2.60
2022-11-05T22:02:52.398Z,2.60
2022-11-05T22:06:04.804Z,2.80
2022-11-05T22:09:07.491Z,2.60
2022-11-05T22:12:11.039Z,2.05
2022-11-05T22:15:14.502Z,2.40
2022-11-05T22:18:18.039Z,2.33
2022-11-05T22:21:20.660Z,2.67
2022-11-05T22:24:24.289Z,2.30
2022-11-05T22:27:31.353Z,2.50
2022-11-05T22:30:37.227Z,2.40
2022-11-05T22:33:39.968Z,2.60
2022-11-05T22:36:42.909Z,2.90
2022-11-05T22:39:46.402Z,2.50
2022-11-05T22:42:49.789Z,2.72
2022-11-05T22:45:55.999Z,2.30
2022-11-05T22:49:00.046Z,2.47
2022-11-05T22:52:03.404Z,2.67
2022-11-05T22:55:09.453Z,2.90
2022-11-05T22:58:12.408Z,2.38
2022-11-05T23:01:16.774Z,2.70
2022-11-05T23:04:23.758Z,2.57
2022-11-05T23:07:49.331Z,2.72
2022-11-05T23:11:18.900Z,2.33
2022-11-05T23:14:25.392Z,2.28
2022-11-05T23:17:48.294Z,2.50
2022-11-05T23:21:10.948Z,2.30
2022-11-05T23:24:14.370Z,2.58
2022-11-05T23:27:17.309Z,2.60
2022-11-05T23:30:24.218Z,2.35
2022-11-05T23:33:27.768Z,2.60
2022-11-05T23:36:48.734Z,2.30
2022-11-05T23:39:52.007Z,2.80
2022-11-05T23:43:18.529Z,2.17
2022-11-05T23:46:40.067Z,2.30
2022-11-05T23:49:42.696Z,2.20
2022-11-05T23:52:46.002Z,1.97
2022-11-05T23:55:49.317Z,2.40
2022-11-05T23:58:52.014Z,2.38
